Time;durP1;ratioP1;P1;durP2;ratioP2;P2;SDS_P1;SDS_P2;PMS_P1;PMS_P2;Temp;Humidity;BMP_temperature;BMP_pressure;BME280_temperature;BME280_humidity;BME280_pressure;Samples;Min_cycle;Max_cycle;Signal;HPM_P1;HPM_P2
2021/08/04 00:01:18;;;;;;;2.10;2.00;;;;;;;15.79;72.86;99614.23;256720;1102;117337;-65
2021/08/04 00:06:22;;;;;;;3.13;2.70;;;;;;;15.83;73.00;99617.98;257209;1103;114658;-66
2021/08/04 00:11:26;;;;;;;6.43;3.35;;;;;;;15.88;73.07;99611.00;257100;1103;114670;-66
2021/08/04 00:16:29;;;;;;;3.55;3.25;;;;;;;15.93;73.61;99608.27;257200;1103;115332;-66
2021/08/04 00:21:32;;;;;;;4.50;3.40;;;;;;;15.97;72.87;99601.27;257232;1103;115920;-66
2021/08/04 00:26:36;;;;;;;3.27;2.90;;;;;;;15.77;72.23;99600.26;257257;1103;114999;-66
2021/08/04 00:31:39;;;;;;;7.73;2.85;;;;;;;15.66;72.51;99603.22;256786;1104;115234;-65
2021/08/04 00:36:45;;;;;;;;;;;;;;;15.59;72.69;99616.95;256160;1104;114768;-66
2021/08/04 00:41:49;;;;;;;2.50;2.30;;;;;;;15.52;73.03;99619.08;257241;1102;102974;-66
2021/08/04 00:46:52;;;;;;;3.15;2.95;;;;;;;15.47;72.71;99617.19;255454;1103;115431;-67
2021/08/04 00:51:55;;;;;;;2.88;2.68;;;;;;;15.45;72.74;99623.91;255753;1102;114786;-66
2021/08/04 00:56:58;;;;;;;6.68;2.85;;;;;;;15.52;73.30;99621.76;254314;1104;115121;-66
2021/08/04 01:02:11;;;;;;;3.43;2.45;;;;;;;15.44;73.27;99611.55;255002;1104;115872;-66
2021/08/04 01:07:25;;;;;;;4.68;2.48;;;;;;;15.40;73.37;99599.73;254668;1104;115090;-65
2021/08/04 01:12:41;;;;;;;5.53;3.20;;;;;;;15.44;74.14;99598.12;254320;1104;115310;-65
2021/08/04 01:17:49;;;;;;;4.95;2.80;;;;;;;15.40;73.94;99589.79;254080;1103;114935;-65
2021/08/04 01:23:14;;;;;;;2.85;2.65;;;;;;;15.45;74.49;99597.85;254043;1103;115391;-64
2021/08/04 01:28:33;;;;;;;5.35;2.70;;;;;;;15.55;74.21;99593.55;254558;1103;114572;-65
2021/08/04 01:33:40;;;;;;;3.48;2.65;;;;;;;15.58;74.46;99599.22;254040;1103;115529;-65
2021/08/04 01:38:43;;;;;;;3.50;2.75;;;;;;;15.60;74.22;99594.36;254106;1104;115711;-67
2021/08/04 01:43:50;;;;;;;4.10;3.63;;;;;;;15.58;74.48;99601.91;254211;1103;115391;-65
2021/08/04 01:48:54;;;;;;;3.58;3.15;;;;;;;15.58;74.70;99607.28;254274;1104;115373;-65
2021/08/04 01:53:57;;;;;;;3.73;2.60;;;;;;;15.63;74.60;99606.45;254199;1104;114654;-65
2021/08/04 01:59:00;;;;;;;4.35;3.70;;;;;;;15.64;74.36;99600.80;255724;1103;115462;-66
2021/08/04 02:04:05;;;;;;;2.88;2.68;;;;;;;15.53;74.02;99596.51;256010;1103;115284;-65
2021/08/04 02:09:19;;;;;;;5.03;3.55;;;;;;;15.41;74.48;99593.28;254027;1104;115398;-65
2021/08/04 02:14:31;;;;;;;3.90;3.18;;;;;;;15.39;74.25;99619.60;254989;1104;114542;-65
2021/08/04 02:19:53;;;;;;;3.83;3.60;;;;;;;15.37;75.11;99627.92;257152;1103;117240;-66
2021/08/04 02:25:06;;;;;;;3.63;3.33;;;;;;;15.45;74.97;99621.22;257144;1103;116444;-65
2021/08/04 02:30:13;;;;;;;7.08;4.05;;;;;;;15.39;75.09;99641.89;257212;1103;114710;-66
2021/08/04 02:35:16;;;;;;;5.38;3.65;;;;;;;15.37;74.78;99656.66;257107;1096;116138;-66
2021/08/04 02:40:19;;;;;;;3.78;3.48;;;;;;;15.39;75.27;99659.89;254485;1103;114799;-66
2021/08/04 02:45:22;;;;;;;4.48;4.00;;;;;;;15.40;75.05;99650.77;254734;1102;115480;-66
2021/08/04 02:50:26;;;;;;;3.93;3.63;;;;;;;15.39;75.28;99658.02;254112;1104;114765;-66
2021/08/04 02:55:29;;;;;;;4.88;4.00;;;;;;;15.35;74.82;99640.81;254712;1104;115413;-66
2021/08/04 03:00:32;;;;;;;4.37;3.97;;;;;;;15.24;75.46;99636.53;255421;1097;115200;-65
2021/08/04 03:05:36;;;;;;;3.70;3.45;;;;;;;15.29;75.47;99633.83;254910;1103;115234;-66
2021/08/04 03:10:40;;;;;;;10.80;3.55;;;;;;;15.33;75.30;99624.16;254178;1103;115530;-66
2021/08/04 03:15:43;;;;;;;4.00;3.70;;;;;;;15.27;74.98;99633.31;255128;1102;116297;-66
2021/08/04 03:20:47;;;;;;;4.60;2.90;;;;;;;15.23;75.48;99636.80;254810;1104;116324;-66
2021/08/04 03:25:51;;;;;;;3.58;3.33;;;;;;;15.19;75.44;99643.77;254486;1100;115167;-66
2021/08/04 03:30:54;;;;;;;3.68;3.35;;;;;;;15.22;76.08;99640.56;254820;1103;115638;-66
2021/08/04 03:35:58;;;;;;;3.10;2.90;;;;;;;15.28;75.92;99628.75;254427;1103;117000;-65
2021/08/04 03:41:01;;;;;;;4.93;3.55;;;;;;;15.20;75.44;99642.70;255476;1096;118135;-67
2021/08/04 03:46:08;;;;;;;8.53;4.15;;;;;;;15.18;75.78;99634.10;254490;1104;115461;-66
2021/08/04 03:51:13;;;;;;;5.75;3.75;;;;;;;15.24;75.63;99628.48;255048;1102;115837;-65
2021/08/04 03:56:17;;;;;;;4.25;3.60;;;;;;;15.27;76.17;99632.52;254470;1103;115295;-66
2021/08/04 04:01:20;;;;;;;6.43;4.50;;;;;;;15.34;76.30;99614.23;254738;1103;116109;-66
2021/08/04 04:06:24;;;;;;;7.30;4.28;;;;;;;15.37;76.27;99619.06;256483;1096;115063;-66
2021/08/04 04:11:27;;;;;;;5.57;4.13;;;;;;;15.41;76.49;99612.89;257298;1102;116220;-66
2021/08/04 04:16:31;;;;;;;5.90;4.00;;;;;;;15.55;76.23;99615.05;257120;1104;115176;-66
2021/08/04 04:21:35;;;;;;;4.60;4.30;;;;;;;15.57;76.07;99618.30;257168;1103;115416;-66
2021/08/04 04:26:38;;;;;;;4.13;3.80;;;;;;;15.64;76.34;99616.12;257246;1102;115312;-66
2021/08/04 04:31:42;;;;;;;4.50;4.03;;;;;;;15.69;76.48;99611.55;257094;1103;115661;-66
2021/08/04 04:36:45;;;;;;;8.43;3.55;;;;;;;15.60;75.86;99615.85;255072;1103;116964;-66
2021/08/04 04:41:48;;;;;;;5.75;4.93;;;;;;;15.67;76.35;99631.70;257289;1104;116047;-66
2021/08/04 04:46:51;;;;;;;4.53;4.05;;;;;;;15.77;76.05;99627.13;255278;1104;116130;-66
2021/08/04 04:51:54;;;;;;;4.78;4.08;;;;;;;15.72;76.16;99635.20;254979;1103;115743;-65
2021/08/04 04:56:56;;;;;;;4.58;4.18;;;;;;;15.78;76.32;99639.49;254859;1104;116094;-66
2021/08/04 05:01:58;;;;;;;7.90;4.10;;;;;;;15.87;76.66;99642.45;254320;1104;115988;-65
2021/08/04 05:07:01;;;;;;;3.87;3.50;;;;;;;15.92;76.55;99644.30;254977;1099;116164;-65
2021/08/04 05:12:05;;;;;;;5.58;4.60;;;;;;;16.05;76.50;99635.67;254281;1096;117238;-65
2021/08/04 05:17:13;;;;;;;4.90;4.03;;;;;;;16.18;76.76;99643.19;254849;1096;114527;-65
2021/08/04 05:22:16;;;;;;;6.00;4.23;;;;;;;16.26;76.66;99639.91;254656;1104;115058;-65
2021/08/04 05:27:22;;;;;;;4.90;4.50;;;;;;;16.31;76.67;99637.20;254685;1103;115355;-64
2021/08/04 05:32:25;;;;;;;4.85;4.10;;;;;;;16.44;76.60;99642.01;254328;1104;116683;-65
2021/08/04 05:37:29;;;;;;;5.05;4.70;;;;;;;16.50;76.33;99650.88;254708;1096;116030;-68
2021/08/04 05:42:32;;;;;;;5.33;4.60;;;;;;;16.60;76.54;99660.77;255249;1104;116024;-67
2021/08/04 05:47:35;;;;;;;9.98;4.45;;;;;;;16.51;75.97;99660.52;254979;1102;115249;-67
2021/08/04 05:52:38;;;;;;;4.08;3.78;;;;;;;16.38;75.84;99659.24;254287;1102;115434;-68
2021/08/04 05:57:43;;;;;;;4.90;4.53;;;;;;;16.38;76.15;99648.48;255940;1104;116720;-67
2021/08/04 06:02:46;;;;;;;6.48;4.58;;;;;;;16.40;76.44;99651.70;257152;1103;115664;-67
2021/08/04 06:07:50;;;;;;;8.98;4.78;;;;;;;16.50;76.72;99665.13;257196;1104;114546;-68
2021/08/04 06:12:53;;;;;;;4.70;4.25;;;;;;;16.80;76.77;99666.91;256404;1104;115118;-67
2021/08/04 06:17:56;;;;;;;5.78;3.73;;;;;;;17.08;76.95;99668.09;256746;1096;115070;-68
2021/08/04 06:22:58;;;;;;;4.65;3.55;;;;;;;17.26;76.47;99658.53;257151;1104;114958;-67
2021/08/04 06:28:01;;;;;;;4.98;3.40;;;;;;;17.50;76.38;99664.00;257117;1103;115141;-67
2021/08/04 06:33:05;;;;;;;5.20;4.20;;;;;;;17.65;76.01;99663.92;257229;1104;115139;-67
2021/08/04 06:38:09;;;;;;;5.33;4.07;;;;;;;17.79;75.62;99672.95;257358;1103;115075;-67
2021/08/04 06:43:12;;;;;;;6.73;4.37;;;;;;;17.76;75.03;99678.09;257124;1103;114891;-67
2021/08/04 06:48:15;;;;;;;6.10;4.10;;;;;;;17.82;75.29;99685.86;257151;1104;115182;-68
2021/08/04 06:53:18;;;;;;;4.87;4.53;;;;;;;17.90;75.16;99684.45;257034;1103;115022;-68
2021/08/04 06:58:22;;;;;;;6.43;3.75;;;;;;;17.99;74.57;99679.26;256905;1103;114944;-68
2021/08/04 07:03:26;;;;;;;5.63;3.63;;;;;;;18.09;74.45;99692.63;257110;1104;115284;-68
2021/08/04 07:08:33;;;;;;;4.68;4.28;;;;;;;17.94;73.83;99693.59;257193;1103;114965;-69
2021/08/04 07:13:36;;;;;;;9.03;4.10;;;;;;;18.02;74.21;99698.38;257076;1104;117026;-69
2021/08/04 07:18:39;;;;;;;5.58;5.08;;;;;;;18.20;74.41;99704.13;256168;1103;116561;-68
2021/08/04 07:23:46;;;;;;;4.80;4.13;;;;;;;18.36;74.31;99711.76;253675;1099;115550;-69
2021/08/04 07:28:50;;;;;;;5.43;4.95;;;;;;;18.58;74.03;99702.36;253601;1104;115594;-68
2021/08/04 07:33:52;;;;;;;3.83;3.53;;;;;;;18.78;73.89;99711.05;255355;1104;115428;-68
2021/08/04 07:38:55;;;;;;;3.83;3.53;;;;;;;18.96;73.56;99717.55;256087;1103;115307;-68
2021/08/04 07:43:58;;;;;;;4.50;4.10;;;;;;;19.15;73.30;99714.88;257332;1103;115396;-68
2021/08/04 07:49:01;;;;;;;4.18;3.83;;;;;;;19.27;72.38;99719.84;257122;1103;116214;-68
2021/08/04 07:54:06;;;;;;;4.33;3.93;;;;;;;19.39;72.27;99717.51;256344;1104;115490;-68
2021/08/04 07:59:09;;;;;;;8.05;4.25;;;;;;;19.51;72.05;99717.91;256935;1103;115216;-68
2021/08/04 08:04:16;;;;;;;6.03;4.43;;;;;;;19.57;71.62;99721.34;257162;1103;116326;-69
2021/08/04 08:09:24;;;;;;;5.10;4.03;;;;;;;19.68;72.05;99715.45;254881;1104;115445;-68
2021/08/04 08:14:29;;;;;;;3.38;3.18;;;;;;;19.80;71.30;99723.92;255694;1104;115962;-68
2021/08/04 08:19:32;;;;;;;3.78;3.28;;;;;;;19.86;70.87;99723.84;254870;1104;117335;-69
2021/08/04 08:24:42;;;;;;;4.28;3.88;;;;;;;19.99;70.41;99728.47;253671;1104;116957;-68
2021/08/04 08:29:47;;;;;;;5.23;4.75;;;;;;;20.16;70.45;99717.91;255247;1104;118426;-67
2021/08/04 08:34:50;;;;;;;4.40;4.00;;;;;;;20.37;69.75;99721.03;257251;1104;116249;-69
2021/08/04 08:39:54;;;;;;;3.67;3.37;;;;;;;20.42;69.42;99718.27;257265;1103;115272;-69
2021/08/04 08:45:00;;;;;;;5.38;3.95;;;;;;;20.39;68.71;99722.37;257275;1104;115180;-69
2021/08/04 08:50:04;;;;;;;4.87;4.10;;;;;;;20.43;68.66;99712.55;257360;1104;115258;-68
2021/08/04 08:55:08;;;;;;;4.47;4.07;;;;;;;20.44;68.64;99718.77;257216;1103;115615;-67
2021/08/04 09:00:12;;;;;;;4.75;3.70;;;;;;;20.37;67.88;99716.45;257265;1104;115830;-67
2021/08/04 09:05:17;;;;;;;6.38;3.58;;;;;;;20.74;68.31;99722.77;257208;1103;116501;-67
2021/08/04 09:10:30;;;;;;;3.37;3.07;;;;;;;21.11;67.96;99717.08;257353;1103;115993;-69
2021/08/04 09:15:43;;;;;;;3.70;3.23;;;;;;;21.14;66.72;99719.18;255797;1104;117185;-67
2021/08/04 09:20:56;;;;;;;3.33;3.13;;;;;;;21.01;66.65;99716.52;257085;1104;118016;-70
2021/08/04 09:26:08;;;;;;;5.30;3.07;;;;;;;20.94;66.64;99719.63;257188;1104;137850;-67
2021/08/04 09:31:11;;;;;;;2.80;2.58;;;;;;;20.99;66.94;99716.82;257429;1103;116388;-69
2021/08/04 09:36:27;;;;;;;4.70;3.23;;;;;;;20.91;65.51;99722.14;254507;1103;116371;-67
2021/08/04 09:41:31;;;;;;;2.88;2.68;;;;;;;20.88;66.74;99723.55;253796;1096;116869;-69
2021/08/04 09:46:35;;;;;;;3.78;2.50;;;;;;;20.84;66.11;99715.22;253730;1104;116457;-68
2021/08/04 09:51:39;;;;;;;2.78;2.50;;;;;;;20.87;66.25;99718.43;253774;1096;115991;-68
2021/08/04 09:56:48;;;;;;;3.10;2.90;;;;;;;20.97;66.60;99727.16;257267;1103;116759;-68
2021/08/04 10:01:51;;;;;;;4.87;2.77;;;;;;;21.00;66.11;99725.75;254104;1104;115475;-69
2021/08/04 10:07:05;;;;;;;3.60;3.30;;;;;;;20.91;65.16;99722.95;253680;1104;114605;-68
2021/08/04 10:12:13;;;;;;;2.55;2.33;;;;;;;21.03;65.91;99719.73;253695;1104;115526;-68
2021/08/04 10:17:20;;;;;;;2.53;2.43;;;;;;;21.28;65.11;99726.52;254082;1104;119048;-68
2021/08/04 10:22:23;;;;;;;2.78;2.58;;;;;;;21.49;64.99;99722.23;253604;1098;115219;-68
2021/08/04 10:27:26;;;;;;;2.45;2.30;;;;;;;21.44;64.66;99725.85;253568;1104;115958;-68
2021/08/04 10:32:31;;;;;;;1.93;1.80;;;;;;;21.36;64.22;99725.80;253845;1103;115013;-68
2021/08/04 10:37:35;;;;;;;2.50;1.63;;;;;;;21.30;64.55;99730.53;256418;1104;115734;-69
2021/08/04 10:42:46;;;;;;;1.78;1.68;;;;;;;21.27;63.96;99727.63;254683;1103;115873;-69
2021/08/04 10:47:51;;;;;;;2.00;1.60;;;;;;;21.31;64.41;99737.56;255931;1103;114886;-69
2021/08/04 10:53:02;;;;;;;3.40;2.20;;;;;;;21.30;64.58;99733.24;253480;1104;114232;-68
2021/08/04 10:58:05;;;;;;;2.70;2.60;;;;;;;21.38;64.73;99731.72;257372;1103;115014;-69
2021/08/04 11:03:31;;;;;;;2.20;2.00;;;;;;;21.54;64.70;99732.16;257233;1103;114632;-70
2021/08/04 11:08:34;;;;;;;6.07;3.93;;;;;;;21.65;64.52;99730.81;257395;1103;114698;-69
2021/08/04 11:13:48;;;;;;;2.57;2.10;;;;;;;21.72;64.38;99729.25;257264;1103;115196;-67
2021/08/04 11:19:10;;;;;;;4.93;4.18;;;;;;;21.88;63.97;99724.27;257302;1104;115347;-67
2021/08/04 11:24:14;;;;;;;2.23;2.07;;;;;;;22.09;63.66;99725.38;257216;1103;115608;-67
2021/08/04 11:29:44;;;;;;;2.00;1.90;;;;;;;22.18;62.96;99712.66;255885;1098;116003;-68
2021/08/04 11:34:48;;;;;;;1.98;1.88;;;;;;;22.23;62.69;99703.58;253647;1096;114795;-67
2021/08/04 11:40:00;;;;;;;1.70;1.60;;;;;;;22.23;62.35;99705.48;253902;1104;115288;-68
2021/08/04 11:45:10;;;;;;;3.37;1.63;;;;;;;22.17;62.28;99699.39;253634;1104;114209;-68
2021/08/04 11:50:14;;;;;;;2.35;2.25;;;;;;;22.10;62.13;99699.03;253768;1098;114715;-68
2021/08/04 11:55:24;;;;;;;2.25;2.13;;;;;;;22.13;61.53;99692.98;254834;1103;115215;-66
2021/08/04 12:00:28;;;;;;;4.23;2.38;;;;;;;22.24;61.25;99688.89;253731;1103;115553;-68
2021/08/04 12:05:32;;;;;;;3.40;2.20;;;;;;;22.25;61.21;99693.20;253662;1102;115668;-68
2021/08/04 12:10:36;;;;;;;1.87;1.77;;;;;;;22.28;60.71;99695.30;253734;1104;115064;-67
2021/08/04 12:15:40;;;;;;;1.13;1.13;;;;;;;22.23;60.16;99695.43;254625;1096;115035;-69
2021/08/04 12:20:44;;;;;;;1.33;1.33;;;;;;;22.17;59.88;99689.33;255737;1104;114900;-69
2021/08/04 12:25:58;;;;;;;1.23;1.23;;;;;;;22.07;59.54;99692.30;255835;1103;116045;-67
2021/08/04 12:31:03;;;;;;;1.75;1.65;;;;;;;22.09;59.63;99690.08;253712;1102;115521;-68
2021/08/04 12:36:23;;;;;;;3.58;2.20;;;;;;;22.09;59.16;99686.56;253730;1103;114102;-67
2021/08/04 12:41:43;;;;;;;2.63;1.78;;;;;;;22.16;59.88;99679.58;253680;1102;115387;-67
2021/08/04 12:46:45;;;;;;;2.40;2.18;;;;;;;22.21;59.45;99675.94;253678;1104;114684;-69
2021/08/04 12:52:06;;;;;;;2.85;2.08;;;;;;;22.23;59.29;99681.05;253859;1103;114794;-68
2021/08/04 12:57:18;;;;;;;5.33;2.10;;;;;;;22.25;59.69;99674.20;257150;1103;115009;-68
2021/08/04 13:02:22;;;;;;;2.20;2.10;;;;;;;22.35;60.02;99676.62;257293;1103;115082;-69
2021/08/04 13:07:41;;;;;;;2.43;2.23;;;;;;;22.50;59.50;99676.20;254288;1104;114517;-67
2021/08/04 13:12:56;;;;;;;4.33;2.20;;;;;;;22.46;59.53;99664.36;255520;1103;115113;-68
2021/08/04 13:17:59;;;;;;;2.65;2.53;;;;;;;22.62;59.87;99669.38;257167;1104;114974;-68
2021/08/04 13:23:17;;;;;;;4.25;1.68;;;;;;;22.77;59.63;99666.19;257088;1104;114808;-68
2021/08/04 13:28:36;;;;;;;1.85;1.75;;;;;;;22.75;59.57;99669.23;257330;1103;115471;-70
2021/08/04 13:33:41;;;;;;;3.20;2.55;;;;;;;22.79;59.54;99662.08;257080;1104;115082;-70
2021/08/04 13:38:44;;;;;;;2.10;1.90;;;;;;;22.65;58.83;99660.56;257069;1104;115932;-73
2021/08/04 13:43:47;;;;;;;2.37;2.23;;;;;;;22.66;59.53;99656.73;257123;1103;116710;-72
2021/08/04 13:48:50;;;;;;;2.45;1.90;;;;;;;22.86;59.70;99653.45;257108;1102;116889;-71
2021/08/04 13:53:54;;;;;;;5.10;2.03;;;;;;;22.96;59.16;99653.13;254411;1103;120613;-68
2021/08/04 13:58:57;;;;;;;1.50;1.50;;;;;;;23.30;58.39;99649.61;256122;1103;116717;-70
2021/08/04 14:03:59;;;;;;;2.30;2.10;;;;;;;23.38;58.76;99648.02;253748;1103;114836;-67
2021/08/04 14:09:02;;;;;;;2.90;2.53;;;;;;;23.20;58.30;99649.96;253665;1102;114467;-67
2021/08/04 14:14:04;;;;;;;2.13;1.95;;;;;;;23.04;58.20;99646.91;253526;1104;115766;-67
2021/08/04 14:19:07;;;;;;;2.00;1.90;;;;;;;22.98;57.89;99652.81;253591;1103;114906;-67
2021/08/04 14:24:10;;;;;;;1.58;1.53;;;;;;;22.73;58.21;99641.56;253653;1104;115032;-67
2021/08/04 14:29:13;;;;;;;4.05;1.85;;;;;;;22.64;58.57;99638.03;257112;1103;116388;-67
2021/08/04 14:34:16;;;;;;;2.28;2.13;;;;;;;22.62;59.08;99634.85;257186;1103;114986;-67
2021/08/04 14:39:20;;;;;;;3.00;2.03;;;;;;;22.70;58.92;99634.05;255674;1104;115056;-67
2021/08/04 14:44:24;;;;;;;1.63;1.53;;;;;;;22.78;58.67;99633.30;256146;1103;136908;-67
2021/08/04 14:49:29;;;;;;;1.70;1.60;;;;;;;22.94;58.43;99630.90;254585;1104;115155;-66
2021/08/04 14:54:32;;;;;;;2.40;2.20;;;;;;;;;;254213;1103;114964;-68
2021/08/04 14:59:36;;;;;;;2.40;2.28;;;;;;;23.01;57.79;99617.63;255170;1103;102984;-68
2021/08/04 15:04:41;;;;;;;;;;;;;;;22.75;58.47;99625.75;253745;1104;114246;-67
2021/08/04 15:09:44;;;;;;;2.43;2.23;;;;;;;22.75;58.76;99617.59;257256;1103;102977;-67
2021/08/04 15:14:47;;;;;;;1.67;1.57;;;;;;;22.77;58.30;99623.52;256960;1103;116035;-67
2021/08/04 15:19:51;;;;;;;1.80;1.70;;;;;;;22.67;58.20;99614.86;253593;1103;116004;-67
2021/08/04 15:24:54;;;;;;;2.00;1.80;;;;;;;22.60;58.43;99614.55;256140;1102;114820;-67
2021/08/04 15:29:57;;;;;;;2.60;2.40;;;;;;;22.72;58.49;99599.20;257254;1104;115791;-67
2021/08/04 15:35:00;;;;;;;2.50;2.30;;;;;;;22.56;58.83;99600.00;257329;1104;116723;-70
2021/08/04 15:40:03;;;;;;;8.60;2.40;;;;;;;22.51;58.63;99601.74;257180;1104;116259;-70
2021/08/04 15:45:07;;;;;;;1.90;1.80;;;;;;;22.47;58.76;99595.34;257102;1103;116067;-69
2021/08/04 15:50:11;;;;;;;2.30;2.20;;;;;;;22.38;58.78;99589.08;257139;1104;116413;-70
2021/08/04 15:55:14;;;;;;;2.27;2.17;;;;;;;22.16;58.94;99591.91;257034;1104;115644;-69
2021/08/04 16:00:18;;;;;;;2.23;2.13;;;;;;;22.06;59.21;99603.84;257253;1104;116492;-68
2021/08/04 16:05:21;;;;;;;2.18;2.05;;;;;;;21.94;59.67;99613.67;256421;1104;116717;-68
2021/08/04 16:10:25;;;;;;;4.20;2.03;;;;;;;21.78;59.74;99615.98;253681;1104;115973;-70
2021/08/04 16:15:28;;;;;;;4.13;2.33;;;;;;;21.64;60.18;99620.70;253852;1104;116418;-69
2021/08/04 16:20:31;;;;;;;2.90;2.53;;;;;;;21.61;60.53;99622.13;253642;1104;116426;-69
2021/08/04 16:25:34;;;;;;;3.20;1.70;;;;;;;21.46;60.88;99617.07;254059;1104;115436;-69
2021/08/04 16:30:37;;;;;;;2.20;2.10;;;;;;;21.28;61.56;99627.02;255502;1103;116868;-67
2021/08/04 16:35:42;;;;;;;2.45;2.35;;;;;;;21.32;62.19;99622.58;253472;1102;115886;-68
2021/08/04 16:40:45;;;;;;;5.88;2.28;;;;;;;21.32;61.82;99619.06;253586;1104;115675;-68
2021/08/04 16:45:51;;;;;;;2.65;2.45;;;;;;;21.26;62.37;99606.73;253586;1098;114680;-69
2021/08/04 16:50:55;;;;;;;2.30;2.20;;;;;;;21.27;63.00;99621.89;253615;1103;114994;-69
2021/08/04 16:55:58;;;;;;;2.05;1.85;;;;;;;21.19;62.48;99617.97;253707;1104;114775;-68
2021/08/04 17:01:03;;;;;;;2.33;2.23;;;;;;;20.94;63.02;99608.53;253470;1103;114797;-69
2021/08/04 17:06:07;;;;;;;2.88;2.68;;;;;;;20.88;63.27;99607.05;253666;1104;115570;-69
2021/08/04 17:11:13;;;;;;;2.33;2.18;;;;;;;20.80;63.33;99613.18;253753;1102;114808;-69
2021/08/04 17:16:20;;;;;;;2.20;2.10;;;;;;;20.78;63.81;99608.09;253547;1103;115692;-69
2021/08/04 17:21:24;;;;;;;3.15;2.30;;;;;;;20.77;63.55;99609.20;253859;1104;114846;-68
2021/08/04 17:26:31;;;;;;;2.38;2.18;;;;;;;20.74;63.73;99619.84;257128;1102;115554;-69
2021/08/04 17:31:34;;;;;;;3.75;2.45;;;;;;;20.65;63.74;99616.23;255694;1103;117740;-68
2021/08/04 17:36:38;;;;;;;3.03;2.80;;;;;;;20.52;63.82;99625.98;254907;1104;114742;-68
2021/08/04 17:41:42;;;;;;;2.75;2.55;;;;;;;20.40;64.56;99623.00;254556;1096;115259;-68
2021/08/04 17:46:45;;;;;;;3.00;2.80;;;;;;;20.26;64.62;99620.25;256348;1102;115479;-66
2021/08/04 17:51:48;;;;;;;6.90;3.35;;;;;;;20.13;64.80;99623.78;254434;1103;117827;-68
2021/08/04 17:56:52;;;;;;;3.10;2.90;;;;;;;19.95;65.08;99617.34;254087;1104;115871;-65
2021/08/04 18:01:55;;;;;;;3.68;3.38;;;;;;;19.79;65.32;99616.83;257145;1104;115307;-67
2021/08/04 18:06:58;;;;;;;3.20;2.90;;;;;;;19.62;65.34;99611.17;256045;1104;116823;-67
2021/08/04 18:12:02;;;;;;;3.70;3.40;;;;;;;19.48;65.83;99618.44;254849;1103;116552;-67
2021/08/04 18:17:06;;;;;;;4.80;2.80;;;;;;;19.35;66.15;99616.47;257171;1104;115467;-67
2021/08/04 18:22:16;;;;;;;4.25;3.10;;;;;;;19.16;66.03;99616.52;254132;1104;115995;-67
2021/08/04 18:27:19;;;;;;;4.20;3.90;;;;;;;18.99;66.12;99625.13;255157;1102;115018;-67
2021/08/04 18:32:22;;;;;;;4.20;3.90;;;;;;;18.78;66.51;99632.73;254101;1096;115060;-68
2021/08/04 18:37:25;;;;;;;5.23;3.30;;;;;;;18.58;66.37;99642.97;254765;1103;115947;-67
2021/08/04 18:42:28;;;;;;;3.88;3.58;;;;;;;18.31;66.96;99641.68;254530;1096;114782;-67
2021/08/04 18:47:31;;;;;;;4.35;3.95;;;;;;;18.16;67.12;99652.63;254502;1104;115207;-67
2021/08/04 18:52:34;;;;;;;3.78;3.48;;;;;;;17.88;67.30;99658.86;254958;1104;114900;-67
2021/08/04 18:57:38;;;;;;;3.63;3.43;;;;;;;17.64;67.57;99648.00;254158;1104;205828;-67
2021/08/04 19:02:52;;;;;;;3.85;3.55;;;;;;;17.36;67.85;99650.38;254316;1096;115944;-67
2021/08/04 19:07:57;;;;;;;4.20;3.90;;;;;;;17.11;68.33;99661.34;254942;1104;116168;-67
2021/08/04 19:13:01;;;;;;;6.13;3.58;;;;;;;16.90;68.42;99663.34;254571;1104;116323;-66
2021/08/04 19:18:04;;;;;;;4.30;3.90;;;;;;;16.80;68.91;99655.33;254146;1102;115865;-67
2021/08/04 19:23:08;;;;;;;3.78;3.58;;;;;;;16.67;69.14;99650.55;254216;1103;115404;-66
2021/08/04 19:28:15;;;;;;;3.60;3.30;;;;;;;16.61;69.82;99659.69;254183;1104;115306;-67
2021/08/04 19:33:21;;;;;;;4.15;3.85;;;;;;;16.61;69.80;99665.06;255110;1104;115230;-67
2021/08/04 19:38:28;;;;;;;4.50;4.20;;;;;;;16.49;69.36;99663.52;254185;1100;116558;-67
2021/08/04 19:43:34;;;;;;;4.73;4.37;;;;;;;16.28;69.61;99664.64;254779;1103;115576;-68
2021/08/04 19:48:39;;;;;;;6.78;5.28;;;;;;;16.13;70.10;99657.44;257171;1104;114785;-65
2021/08/04 19:53:45;;;;;;;6.40;5.55;;;;;;;16.01;70.00;99659.61;256642;1104;115084;-65
2021/08/04 19:58:50;;;;;;;5.63;5.13;;;;;;;15.96;70.34;99666.88;257194;1103;115425;-68
2021/08/04 20:03:55;;;;;;;7.93;4.43;;;;;;;15.92;70.44;99655.05;257238;1104;115541;-67
2021/08/04 20:09:00;;;;;;;6.93;4.70;;;;;;;15.86;70.10;99656.16;257210;1103;114666;-67
2021/08/04 20:14:07;;;;;;;6.10;4.35;;;;;;;15.76;70.70;99647.02;254414;1103;115235;-67
2021/08/04 20:19:10;;;;;;;9.03;5.68;;;;;;;15.75;71.17;99649.98;255699;1099;115089;-67
2021/08/04 20:24:14;;;;;;;6.00;5.58;;;;;;;15.71;71.05;99643.53;254936;1102;115167;-67
2021/08/04 20:29:16;;;;;;;7.18;5.65;;;;;;;15.66;70.92;99641.64;254049;1104;115157;-68
2021/08/04 20:34:19;;;;;;;6.50;5.90;;;;;;;15.55;71.08;99634.66;254229;1096;115497;-66
2021/08/04 20:39:24;;;;;;;5.70;5.13;;;;;;;15.47;71.64;99632.50;254949;1102;115373;-67
2021/08/04 20:44:29;;;;;;;7.33;4.05;;;;;;;15.26;71.02;99634.39;254025;1099;115402;-67
2021/08/04 20:49:33;;;;;;;5.10;4.75;;;;;;;15.04;71.22;99644.55;255093;1103;115171;-67
2021/08/04 20:54:37;;;;;;;5.23;4.35;;;;;;;14.95;71.58;99636.23;254408;1104;115815;-67
2021/08/04 20:59:40;;;;;;;6.05;5.65;;;;;;;14.84;71.43;99639.95;254654;1096;114890;-68
2021/08/04 21:04:44;;;;;;;5.80;5.23;;;;;;;14.76;71.64;99643.14;254504;1104;115741;-67
2021/08/04 21:09:46;;;;;;;5.85;5.30;;;;;;;14.60;72.17;99644.98;254598;1102;115326;-66
2021/08/04 21:14:49;;;;;;;7.23;6.63;;;;;;;14.55;72.87;99633.42;254428;1103;115512;-66
2021/08/04 21:19:52;;;;;;;6.10;5.23;;;;;;;14.61;72.80;99624.33;254417;1096;115929;-66
2021/08/04 21:24:57;;;;;;;6.13;5.63;;;;;;;14.57;72.55;99624.05;254583;1104;115310;-67
2021/08/04 21:30:00;;;;;;;5.65;5.15;;;;;;;14.44;72.75;99625.33;254240;1104;114963;-67
2021/08/04 21:35:03;;;;;;;5.45;4.50;;;;;;;14.28;72.87;99626.32;254138;1104;115220;-65
2021/08/04 21:40:12;;;;;;;8.23;5.08;;;;;;;14.25;72.91;99617.98;254833;1099;115209;-66
2021/08/04 21:45:15;;;;;;;5.63;5.13;;;;;;;14.25;73.17;99621.48;255868;1102;114806;-66
2021/08/04 21:50:23;;;;;;;8.35;4.85;;;;;;;14.22;73.05;99626.55;255220;1096;114534;-66
2021/08/04 21:55:27;;;;;;;11.43;5.80;;;;;;;14.09;72.83;99623.27;255170;1103;115062;-66
2021/08/04 22:00:31;;;;;;;5.75;4.43;;;;;;;13.99;73.09;99617.06;254511;1104;115047;-66
2021/08/04 22:05:35;;;;;;;7.33;5.35;;;;;;;13.94;73.42;99612.48;257230;1102;117028;-66
2021/08/04 22:10:37;;;;;;;7.17;5.17;;;;;;;13.91;73.81;99606.83;257180;1103;116321;-66
2021/08/04 22:15:41;;;;;;;4.58;4.28;;;;;;;13.85;73.83;99607.85;256996;1100;115495;-66
2021/08/04 22:20:46;;;;;;;4.73;4.40;;;;;;;13.77;73.33;99604.59;256833;1099;116302;-66
2021/08/04 22:25:50;;;;;;;6.10;4.43;;;;;;;13.73;73.68;99592.80;255968;1103;117367;-66
2021/08/04 22:30:54;;;;;;;4.80;4.47;;;;;;;13.81;73.74;99594.17;257094;1104;115147;-66
2021/08/04 22:36:00;;;;;;;9.28;4.70;;;;;;;13.79;73.74;99590.94;254381;1096;115160;-67
2021/08/04 22:41:04;;;;;;;5.77;4.40;;;;;;;13.66;73.79;99591.41;255233;1103;114846;-66
2021/08/04 22:46:10;;;;;;;5.07;3.90;;;;;;;13.52;73.50;99579.52;254553;1104;115975;-66
2021/08/04 22:51:14;;;;;;;8.05;5.05;;;;;;;13.43;74.18;99580.02;255216;1102;115371;-66
2021/08/04 22:56:17;;;;;;;5.63;5.13;;;;;;;13.48;74.30;99580.03;254455;1103;118097;-66
2021/08/04 23:01:20;;;;;;;7.53;5.33;;;;;;;13.40;74.18;99585.89;254598;1103;116001;-66
2021/08/04 23:06:25;;;;;;;5.08;4.68;;;;;;;13.31;73.84;99578.57;255289;1104;114932;-66
2021/08/04 23:11:28;;;;;;;5.73;5.23;;;;;;;13.30;74.89;99568.93;255072;1104;115066;-66
2021/08/04 23:16:32;;;;;;;4.95;4.38;;;;;;;13.31;74.40;99565.19;254160;1096;114968;-65
2021/08/04 23:21:35;;;;;;;5.20;4.80;;;;;;;13.21;74.03;99562.42;255264;1102;115532;-65
2021/08/04 23:26:39;;;;;;;3.98;3.68;;;;;;;13.07;74.49;99557.48;254334;1104;115074;-64